createdAt,value
2019-02-10T00:06:24.305Z,143391.16
2019-02-10T00:11:14.595Z,143384.09
2019-02-10T00:16:52.156Z,143387.66
2019-02-10T00:21:48.061Z,143380.59
2019-02-10T00:26:43.956Z,143374.72
2019-02-10T00:31:39.862Z,143384.09
2019-02-10T00:36:35.759Z,143379.44
2019-02-10T00:41:31.725Z,143358.33
2019-02-10T00:46:27.617Z,143360.69
2019-02-10T00:51:23.518Z,143360.69
2019-02-10T00:56:20.090Z,143340.78
2019-02-10T01:01:15.993Z,143324.34
2019-02-10T01:06:11.886Z,143323.19
2019-02-10T01:11:07.817Z,143269.27
2019-02-10T01:16:03.824Z,143281.00
2019-02-10T01:20:59.732Z,143266.91
2019-02-10T01:25:55.628Z,143242.31
2019-02-10T01:30:51.622Z,143256.39
2019-02-10T01:35:47.514Z,143264.56
2019-02-10T01:40:43.396Z,143262.25
2019-02-10T01:45:39.280Z,143276.28
2019-02-10T01:50:35.169Z,143283.30
2019-02-10T01:55:32.945Z,143277.44
2019-02-10T02:00:29.057Z,143264.56
2019-02-10T02:05:25.058Z,143248.17
2019-02-10T02:10:20.993Z,143271.63
2019-02-10T02:15:16.878Z,143250.53
2019-02-10T02:20:12.870Z,143271.63
2019-02-10T02:25:11.060Z,143284.50
2019-02-10T02:30:10.182Z,143289.17
2019-02-10T02:35:06.140Z,143266.91
2019-02-10T02:40:02.925Z,143281.00
2019-02-10T02:44:58.817Z,143292.67
2019-02-10T02:49:54.706Z,143307.95
2019-02-10T02:54:50.662Z,143318.53
2019-02-10T02:59:46.522Z,143325.55
2019-02-10T03:04:42.410Z,143340.78
2019-02-10T03:09:39.009Z,143339.59
2019-02-10T03:14:34.880Z,143351.31
2019-02-10T03:19:30.766Z,143346.59
2019-02-10T03:24:27.396Z,143323.19
2019-02-10T03:29:23.241Z,143316.17
2019-02-10T03:34:19.134Z,143314.97
2019-02-10T03:39:15.025Z,143297.38
2019-02-10T03:44:10.910Z,143297.38
2019-02-10T03:49:06.848Z,143250.53
2019-02-10T03:54:08.321Z,143281.00
2019-02-10T03:59:04.302Z,143245.81
2019-02-10T04:04:00.174Z,143236.45
2019-02-10T04:08:56.060Z,143194.31
2019-02-10T04:13:51.963Z,143229.44
2019-02-10T04:18:48.529Z,143210.70
2019-02-10T04:23:45.463Z,143187.31
2019-02-10T04:28:41.501Z,143163.86
2019-02-10T04:33:37.395Z,143167.37
2019-02-10T04:38:33.273Z,143131.09
2019-02-10T04:43:29.175Z,143152.14
2019-02-10T04:48:25.066Z,143153.34
2019-02-10T04:53:21.056Z,143156.84
2019-02-10T04:58:16.940Z,143119.37
2019-02-10T05:03:12.827Z,143118.22
2019-02-10T05:08:08.759Z,143113.53
2019-02-10T05:13:04.799Z,143095.94
2019-02-10T05:18:00.687Z,143084.27
2019-02-10T05:22:56.573Z,143077.22
2019-02-10T05:27:52.478Z,143044.47
2019-02-10T05:32:48.348Z,143062.03
2019-02-10T05:37:44.231Z,143035.09
2019-02-10T05:42:40.113Z,143011.72
2019-02-10T05:47:36.036Z,143023.39
2019-02-10T05:52:31.919Z,142974.27
2019-02-10T05:57:27.810Z,142997.66
2019-02-10T06:02:25.624Z,142976.58
2019-02-10T06:07:21.510Z,142970.72
2019-02-10T06:12:17.423Z,142985.94
2019-02-10T06:17:13.311Z,142983.63
2019-02-10T06:22:09.206Z,142980.08
2019-02-10T06:27:05.097Z,142964.91
2019-02-10T06:32:00.997Z,142969.56
2019-02-10T06:36:56.887Z,142963.72
2019-02-10T06:41:52.769Z,142953.20
2019-02-10T06:46:49.528Z,142943.84
2019-02-10T06:51:45.419Z,142929.78
2019-02-10T06:56:41.307Z,142935.63
2019-02-10T07:01:39.176Z,142920.42
2019-02-10T07:06:35.165Z,142901.70
2019-02-10T07:11:31.070Z,142914.56
2019-02-10T07:16:30.289Z,142906.41
2019-02-10T07:21:29.477Z,142897.05
2019-02-10T07:26:45.951Z,142879.48
2019-02-10T07:31:45.731Z,142887.69
2019-02-10T07:36:48.491Z,142886.48
2019-02-10T07:42:22.249Z,142891.19
2019-02-10T07:47:40.362Z,142913.41
2019-02-10T07:52:45.931Z,142919.27
2019-02-10T07:58:00.752Z,142939.14
2019-02-10T08:03:22.165Z,142950.84
2019-02-10T08:08:26.671Z,142946.19
2019-02-10T08:13:39.314Z,142934.48
2019-02-10T08:18:53.875Z,142983.63
2019-02-10T08:24:26.338Z,143002.36
2019-02-10T08:29:42.708Z,143030.39
2019-02-10T08:34:51.967Z,143043.31
2019-02-10T08:40:00.715Z,143072.56
2019-02-10T08:45:13.175Z,143091.28
2019-02-10T08:50:25.248Z,143080.77
2019-02-10T08:55:21.679Z,143107.66
2019-02-10T09:00:18.160Z,143128.75
2019-02-10T09:05:14.603Z,143163.86
2019-02-10T09:10:12.252Z,143184.94
2019-02-10T09:15:10.524Z,143183.75
2019-02-10T09:20:08.586Z,143210.70
2019-02-10T09:25:07.714Z,143252.88
2019-02-10T09:30:07.105Z,143264.56
2019-02-10T09:35:05.098Z,143316.17
2019-02-10T09:40:01.124Z,143351.31
2019-02-10T09:44:57.026Z,143416.94
2019-02-10T09:49:52.917Z,143468.47
2019-02-10T09:54:48.804Z,143520.08
2019-02-10T09:59:44.713Z,143557.59
2019-02-10T10:04:40.621Z,143583.37
2019-02-10T10:09:36.485Z,143597.47
2019-02-10T10:14:32.497Z,143620.91
2019-02-10T10:19:28.393Z,143664.31
2019-02-10T10:24:27.113Z,143680.72
2019-02-10T10:29:23.098Z,143707.72
2019-02-10T10:34:18.983Z,143720.62
2019-02-10T10:39:14.856Z,143738.23
2019-02-10T10:44:10.845Z,143768.75
2019-02-10T10:49:06.737Z,143789.88
2019-02-10T10:54:05.979Z,143803.94
2019-02-10T10:59:02.529Z,143821.56
2019-02-10T11:03:58.438Z,143816.84
2019-02-10T11:08:54.322Z,143806.30
2019-02-10T11:13:50.350Z,143785.16
2019-02-10T11:18:46.246Z,143766.39
2019-02-10T11:23:42.635Z,143752.34
2019-02-10T11:28:40.932Z,143725.28
2019-02-10T11:33:36.925Z,143700.64
2019-02-10T11:38:32.814Z,143681.87
2019-02-10T11:43:28.725Z,143646.70
2019-02-10T11:48:24.623Z,143640.83
2019-02-10T11:53:20.803Z,143612.69
2019-02-10T11:58:16.852Z,143599.78
2019-02-10T12:03:15.193Z,143619.75
2019-02-10T12:08:11.090Z,143618.55
2019-02-10T12:13:07.019Z,143627.94
2019-02-10T12:18:03.906Z,143644.34
2019-02-10T12:23:00.507Z,143631.44
2019-02-10T12:27:56.811Z,143650.22
2019-02-10T12:32:52.722Z,143638.52
2019-02-10T12:37:50.862Z,143644.34
2019-02-10T12:42:47.471Z,143658.44
2019-02-10T12:47:43.380Z,143685.44
2019-02-10T12:52:40.065Z,143678.36
2019-02-10T12:57:36.055Z,143685.44
2019-02-10T13:02:32.182Z,143676.05
2019-02-10T13:07:30.630Z,143679.56
2019-02-10T13:12:27.307Z,143693.62
2019-02-10T13:17:23.820Z,143721.77
2019-02-10T13:22:19.706Z,143727.64
2019-02-10T13:27:15.597Z,143738.23
2019-02-10T13:32:11.544Z,143735.92
2019-02-10T13:37:07.713Z,143732.41
2019-02-10T13:42:03.621Z,143713.59
2019-02-10T13:46:59.513Z,143695.97
2019-02-10T13:51:55.399Z,143686.59
2019-02-10T13:56:51.357Z,143646.70
2019-02-10T14:01:47.301Z,143616.25
2019-02-10T14:06:43.185Z,143591.61
2019-02-10T14:11:39.199Z,143572.84
2019-02-10T14:16:35.111Z,143561.11
2019-02-10T14:21:31.068Z,143534.13
2019-02-10T14:26:26.973Z,143543.50
2019-02-10T14:31:22.906Z,143535.33
2019-02-10T14:36:18.837Z,143529.45
2019-02-10T14:41:14.741Z,143529.45
2019-02-10T14:46:16.385Z,143529.45
2019-02-10T14:51:12.894Z,143542.34
2019-02-10T14:56:08.788Z,143514.22
2019-02-10T15:01:04.773Z,143510.70
2019-02-10T15:06:00.721Z,143487.23
2019-02-10T15:10:56.789Z,143501.33
2019-02-10T15:15:52.772Z,143484.92
2019-02-10T15:20:48.816Z,143474.34
2019-02-10T15:25:44.740Z,143464.97
2019-02-10T15:30:40.694Z,143446.22
2019-02-10T15:35:36.635Z,143433.33
2019-02-10T15:40:32.756Z,143438.03
2019-02-10T15:45:29.875Z,143436.84
2019-02-10T15:50:26.711Z,143423.95
2019-02-10T15:55:23.491Z,143421.59
2019-02-10T16:00:25.577Z,143419.28
2019-02-10T16:05:21.729Z,143400.53
2019-02-10T16:10:17.751Z,143398.19
2019-02-10T16:15:13.765Z,143393.47
2019-02-10T16:20:11.879Z,143393.47
2019-02-10T16:25:08.474Z,143377.08
2019-02-10T16:30:07.678Z,143374.72
2019-02-10T16:35:05.007Z,143368.91
2019-02-10T16:40:01.032Z,143351.31
2019-02-10T16:44:57.554Z,143322.03
2019-02-10T16:49:54.598Z,143277.44
2019-02-10T16:54:51.530Z,143229.44
2019-02-10T16:59:48.751Z,143196.67
2019-02-10T17:04:46.318Z,143188.45
2019-02-10T17:09:42.669Z,143182.59
2019-02-10T17:14:40.653Z,143163.86
2019-02-10T17:19:36.543Z,143166.22
2019-02-10T17:24:32.854Z,143156.84
2019-02-10T17:29:28.842Z,143118.22
2019-02-10T17:34:25.025Z,143069.05
2019-02-10T17:39:21.770Z,143018.72
2019-02-10T17:44:17.875Z,143018.72
2019-02-10T17:49:13.973Z,143011.72
2019-02-10T17:54:10.824Z,142990.64
2019-02-10T17:59:06.803Z,142981.28
2019-02-10T18:04:04.338Z,142969.56
2019-02-10T18:09:00.426Z,142976.58
2019-02-10T18:13:56.370Z,142971.92
2019-02-10T18:18:54.187Z,142943.84
2019-02-10T18:23:52.061Z,142943.84
2019-02-10T18:28:50.686Z,142948.50
2019-02-10T18:33:57.827Z,142946.19
2019-02-10T18:38:58.727Z,142911.06
2019-02-10T18:43:58.325Z,142899.39
2019-02-10T18:48:56.722Z,142874.83
2019-02-10T18:53:54.625Z,142866.62
2019-02-10T19:04:21.504Z,142757.86
2019-02-10T19:09:27.918Z,142707.55
2019-02-10T19:14:28.488Z,142676.00
2019-02-10T19:19:43.106Z,142659.64
2019-02-10T19:24:58.512Z,142635.09
2019-02-10T19:30:08.576Z,142618.73
2019-02-10T19:35:21.732Z,142604.69
2019-02-10T19:40:19.561Z,142632.73
2019-02-10T19:45:17.393Z,142593.05
2019-02-10T19:55:29.036Z,142527.61
2019-02-10T20:00:26.842Z,142522.92
2019-02-10T20:05:36.714Z,142496.08
2019-02-10T20:10:52.639Z,142487.89
2019-02-10T20:15:53.473Z,142445.81
2019-02-10T20:20:51.462Z,142422.48
2019-02-10T20:26:01.682Z,142410.80
2019-02-10T20:31:16.110Z,142427.17
2019-02-10T20:36:16.444Z,142420.14
2019-02-10T20:41:14.231Z,142410.80
2019-02-10T20:46:14.962Z,142413.14
2019-02-10T20:51:18.793Z,142415.48
2019-02-10T20:56:33.480Z,142410.80
2019-02-10T21:01:40.668Z,142388.61
2019-02-10T21:06:56.111Z,142385.13
2019-02-10T21:12:00.300Z,142347.75
2019-02-10T21:27:40.675Z,142221.72
2019-02-10T21:32:38.469Z,142212.39
2019-02-10T21:37:39.871Z,142204.20
2019-02-10T21:42:52.562Z,142198.36
2019-02-10T21:47:56.145Z,142185.53
2019-02-10T21:52:52.193Z,142200.70
2019-02-10T21:57:48.096Z,142193.72
2019-02-10T22:02:43.999Z,142190.22
2019-02-10T22:07:41.980Z,142203.06
2019-02-10T22:12:39.622Z,142217.03
2019-02-10T22:17:35.677Z,142222.88
2019-02-10T22:22:31.566Z,142226.38
2019-02-10T22:27:27.467Z,142249.73
2019-02-10T22:32:23.439Z,142252.03
2019-02-10T22:37:26.218Z,142257.88
2019-02-10T22:42:22.118Z,142266.06
2019-02-10T22:47:18.000Z,142270.70
2019-02-10T22:52:14.132Z,142282.39
2019-02-10T22:57:10.021Z,142285.88
2019-02-10T23:02:06.215Z,142285.88
2019-02-10T23:07:03.275Z,142298.72
2019-02-10T23:11:59.295Z,142273.05
2019-02-10T23:16:55.194Z,142282.39
2019-02-10T23:21:51.077Z,142275.39
2019-02-10T23:26:46.982Z,142273.05
2019-02-10T23:31:42.879Z,142289.37
2019-02-10T23:36:38.779Z,142284.73
2019-02-10T23:41:34.781Z,142284.73
2019-02-10T23:46:30.666Z,142303.41
2019-02-10T23:51:26.564Z,142310.41
2019-02-10T23:56:22.758Z,142301.06
